Guia Lopes Da Laguna, Brazil
Current Conditions -  °F | °C
As of 9:00 PM on Wednesday 22 Oct 2014 (Local Time) from SBCG Reporting Station
Clear Clear  
Wind Chill: 77°   Ceiling: Unl
Heat Index: 79°   Visibility: 6mi
Dew Point: 59°   Wind: 8mph
Humidity: 54%   Direction: 120°ESE
Pressure: 29.97"   Gusts: NA
Location:  21.46°S, 56.11°W
Report Text: SBCG 230000Z 12007KT CAVOK 25/15 Q1015
Loading
Personal Weather Stations






























Interactive Weather Map
Tropical Storm Tracking
New forecast layout! Learn more

10-Day Weather Forecast

Advertisements
Track Severe Weather on mobile